Time;durP1;ratioP1;P1;durP2;ratioP2;P2;SDS_P1;SDS_P2;PMS_P1;PMS_P2;Temp;Humidity;BMP_temperature;BMP_pressure;BME280_temperature;BME280_humidity;BME280_pressure;Samples;Min_cycle;Max_cycle;Signal;HPM_P1;HPM_P2
2024/03/10 00:02:22;;;;;;;16.90;7.03;;;;;;;8.19;79.66;99815.44;5087404;28;20036;-67
2024/03/10 00:04:48;;;;;;;18.60;6.25;;;;;;;8.00;80.08;99815.50;5106573;27;20016;-67
2024/03/10 00:07:13;;;;;;;14.65;6.75;;;;;;;8.05;80.74;99819.81;5092297;28;20027;-67
2024/03/10 00:09:40;;;;;;;20.50;6.70;;;;;;;7.98;80.74;99825.03;5071789;28;20024;-68
2024/03/10 00:12:06;;;;;;;22.48;7.30;;;;;;;8.00;80.39;99823.56;5092497;28;20032;-68
2024/03/10 00:14:32;;;;;;;16.20;5.78;;;;;;;7.99;80.82;99821.25;5086012;28;20311;-68
2024/03/10 00:16:58;;;;;;;14.98;5.55;;;;;;;7.88;81.17;99814.91;5092163;28;20051;-67
2024/03/10 00:19:25;;;;;;;22.20;6.35;;;;;;;7.93;81.64;99811.94;5091703;28;20051;-67
2024/03/10 00:21:51;;;;;;;14.15;6.03;;;;;;;7.91;81.51;99811.53;5090074;28;20107;-68
2024/03/10 00:24:19;;;;;;;14.55;6.30;;;;;;;7.84;81.16;99808.72;5087293;28;20567;-67
2024/03/10 00:26:44;;;;;;;15.82;6.25;;;;;;;7.74;82.45;99809.31;5108285;27;20047;-68
2024/03/10 00:29:13;;;;;;;14.43;6.03;;;;;;;7.89;81.82;99805.75;5066076;28;20028;-68
2024/03/10 00:31:39;;;;;;;17.08;6.07;;;;;;;7.91;81.48;99798.13;5104141;27;20040;-67
2024/03/10 00:34:05;;;;;;;16.02;6.30;;;;;;;7.88;81.07;99793.47;5072364;28;20047;-68
2024/03/10 00:36:31;;;;;;;21.27;6.85;;;;;;;7.99;80.84;99791.75;5088883;28;20032;-67
2024/03/10 00:38:56;;;;;;;15.50;6.60;;;;;;;8.00;80.88;99790.59;5085019;28;20047;-67
2024/03/10 00:41:22;;;;;;;14.30;5.25;;;;;;;8.00;80.79;99788.72;5090258;28;20040;-67
2024/03/10 00:43:48;;;;;;;15.00;5.32;;;;;;;7.93;80.89;99790.50;5071714;28;20028;-67
2024/03/10 00:46:15;;;;;;;18.25;6.50;;;;;;;7.99;80.90;99797.13;5084896;28;20039;-68
2024/03/10 00:48:40;;;;;;;17.50;5.88;;;;;;;7.85;81.14;99791.50;5094096;28;20028;-67
2024/03/10 00:51:06;;;;;;;17.92;6.13;;;;;;;7.83;80.94;99788.41;5074817;28;20404;-67
2024/03/10 00:53:32;;;;;;;20.23;6.45;;;;;;;7.82;81.27;99784.94;5075799;28;20040;-67
2024/03/10 00:55:57;;;;;;;16.63;6.70;;;;;;;7.63;82.24;99798.41;5091137;28;20039;-67
2024/03/10 00:58:23;;;;;;;16.20;5.85;;;;;;;7.70;82.40;99795.88;5092031;28;20080;-67
2024/03/10 01:00:48;;;;;;;15.85;6.50;;;;;;;7.76;82.13;99788.28;5093482;28;20031;-67
2024/03/10 01:03:16;;;;;;;19.60;5.78;;;;;;;7.76;81.76;99783.69;5092139;28;20536;-67
2024/03/10 01:05:41;;;;;;;12.60;6.50;;;;;;;7.73;82.21;99786.31;5101943;28;20696;-68
2024/03/10 01:08:07;;;;;;;19.15;6.63;;;;;;;7.83;81.82;99783.06;5091531;28;20031;-68
2024/03/10 01:10:33;;;;;;;17.52;7.22;;;;;;;7.86;81.38;99787.69;5090402;28;20024;-67
2024/03/10 01:12:58;;;;;;;13.07;5.55;;;;;;;7.87;80.86;99771.25;5088768;28;20020;-67
2024/03/10 01:15:24;;;;;;;19.77;5.90;;;;;;;7.81;81.29;99777.28;5088994;28;20501;-67
2024/03/10 01:17:50;;;;;;;16.23;6.28;;;;;;;7.83;81.64;99793.78;5074980;28;20115;-67
2024/03/10 01:20:16;;;;;;;19.98;6.25;;;;;;;7.59;82.31;99783.41;5106931;27;20523;-67
2024/03/10 01:22:42;;;;;;;10.05;5.28;;;;;;;7.64;82.98;99786.56;5091961;28;20114;-67
2024/03/10 01:25:08;;;;;;;11.07;5.15;;;;;;;7.65;83.08;99779.28;5091180;28;20035;-67
2024/03/10 01:27:36;;;;;;;14.65;5.43;;;;;;;7.68;83.04;99781.25;5093429;28;20031;-68
2024/03/10 01:30:02;;;;;;;16.10;6.47;;;;;;;7.63;83.26;99781.53;5071212;28;20046;-67
2024/03/10 01:32:29;;;;;;;15.88;5.50;;;;;;;7.54;82.87;99770.28;5089749;28;20081;-67
2024/03/10 01:34:55;;;;;;;16.13;6.10;;;;;;;7.62;82.41;99770.06;5092037;28;20056;-68
2024/03/10 01:37:21;;;;;;;16.55;5.43;;;;;;;7.68;82.88;99771.31;5091911;28;20042;-67
2024/03/10 01:39:47;;;;;;;15.48;6.30;;;;;;;7.54;83.29;99773.75;5087844;28;20076;-68
2024/03/10 01:42:13;;;;;;;16.48;6.20;;;;;;;7.58;83.00;99781.84;5085876;28;20063;-67
2024/03/10 01:44:39;;;;;;;16.63;6.57;;;;;;;7.60;82.93;99777.69;5076602;28;20113;-67
2024/03/10 01:47:04;;;;;;;14.63;5.82;;;;;;;7.61;83.15;99773.09;5090469;28;20024;-67
2024/03/10 01:49:33;;;;;;;12.18;5.68;;;;;;;7.64;82.40;99789.25;5092824;28;20028;-67
2024/03/10 01:51:59;;;;;;;16.77;6.68;;;;;;;7.54;82.89;99773.75;5090454;28;20079;-67
2024/03/10 01:54:30;;;;;;;16.67;6.47;;;;;;;7.58;82.98;99776.47;5085869;28;20027;-68
2024/03/10 01:56:57;;;;;;;22.88;6.35;;;;;;;7.56;83.05;99782.22;5093923;28;20112;-67
2024/03/10 01:59:23;;;;;;;16.85;5.68;;;;;;;7.65;82.36;99773.91;5090606;28;20450;-67
2024/03/10 02:01:48;;;;;;;16.17;6.60;;;;;;;7.52;82.69;99778.69;5077850;28;20105;-67
2024/03/10 02:04:14;;;;;;;19.70;6.30;;;;;;;7.53;82.58;99784.81;5089869;28;20043;-67
2024/03/10 02:06:43;;;;;;;20.45;6.18;;;;;;;7.56;82.29;99776.06;5091310;28;20699;-68
2024/03/10 02:09:10;;;;;;;19.08;5.15;;;;;;;7.58;82.43;99768.44;5089984;28;20055;-67
2024/03/10 02:11:36;;;;;;;21.92;6.88;;;;;;;7.58;81.82;99763.09;5086593;28;20020;-68
2024/03/10 02:14:03;;;;;;;18.88;5.90;;;;;;;7.53;82.46;99766.06;5083312;28;20055;-68
2024/03/10 02:16:28;;;;;;;14.98;5.80;;;;;;;7.48;83.15;99763.66;5090907;28;20048;-67
2024/03/10 02:18:54;;;;;;;14.05;5.88;;;;;;;7.32;84.01;99763.00;5093426;28;20111;-67
2024/03/10 02:21:21;;;;;;;18.92;6.68;;;;;;;7.39;83.41;99760.47;5085768;28;20012;-67
2024/03/10 02:24:05;;;;;;;14.60;5.93;;;;;;;7.40;84.12;99764.66;5090056;28;20063;-68
2024/03/10 02:26:36;;;;;;;18.20;6.47;;;;;;;7.37;84.35;99752.00;5096416;28;20040;-67
2024/03/10 02:29:18;;;;;;;16.92;5.82;;;;;;;7.39;84.28;99757.78;5127892;27;20036;-68
2024/03/10 02:48:14;;;;;;;16.75;6.28;;;;;;;7.32;84.16;99740.44;5091979;28;20031;-68
2024/03/10 02:50:40;;;;;;;20.83;6.63;;;;;;;7.28;84.48;99744.19;5108459;27;20068;-67
2024/03/10 02:53:06;;;;;;;21.75;6.50;;;;;;;7.21;84.44;99746.75;5092516;28;20046;-68
2024/03/10 02:55:34;;;;;;;14.13;5.63;;;;;;;7.29;84.23;99746.53;5097926;28;20119;-68
2024/03/10 02:58:04;;;;;;;13.73;6.68;;;;;;;7.30;84.67;99748.06;5097860;28;20036;-68
2024/03/10 03:00:34;;;;;;;12.43;5.63;;;;;;;7.36;84.13;99745.09;5091007;28;20028;-69
2024/03/10 03:03:01;;;;;;;15.35;5.60;;;;;;;7.32;84.13;99751.16;5094681;28;20646;-67
2024/03/10 03:05:26;;;;;;;22.25;7.10;;;;;;;7.23;84.33;99742.59;5095820;28;20031;-68
2024/03/10 03:07:53;;;;;;;16.88;6.53;;;;;;;7.22;84.39;99749.06;5091736;28;20031;-68
2024/03/10 03:10:19;;;;;;;16.25;5.72;;;;;;;7.27;84.27;99743.44;5092205;28;20044;-68
2024/03/10 03:12:46;;;;;;;18.65;6.90;;;;;;;7.26;84.42;99741.88;5091837;28;20081;-67
2024/03/10 03:15:12;;;;;;;12.65;5.50;;;;;;;7.27;84.24;99743.44;5096842;28;20032;-67
2024/03/10 03:17:37;;;;;;;16.40;6.18;;;;;;;7.17;84.46;99741.31;5093100;28;20036;-67
2024/03/10 03:20:13;;;;;;;15.07;6.15;;;;;;;7.08;84.68;99735.41;5095645;28;20069;-68
2024/03/10 03:22:41;;;;;;;16.85;5.20;;;;;;;7.13;84.93;99732.44;5098311;28;20059;-67
2024/03/10 03:25:07;;;;;;;13.20;4.75;;;;;;;7.16;84.41;99747.78;5091722;28;20051;-67
2024/03/10 03:27:35;;;;;;;19.40;6.60;;;;;;;7.02;85.94;99742.19;5092454;28;20054;-67
2024/03/10 03:30:02;;;;;;;19.58;6.85;;;;;;;7.00;85.40;99735.63;5096058;28;20631;-67
2024/03/10 03:32:29;;;;;;;19.40;6.35;;;;;;;7.06;85.56;99734.22;5095331;28;20067;-67
2024/03/10 03:34:54;;;;;;;13.60;5.63;;;;;;;7.07;85.64;99733.84;5092800;28;20032;-67
2024/03/10 03:37:21;;;;;;;13.25;5.47;;;;;;;7.05;85.78;99724.63;5092979;28;20035;-67
2024/03/10 03:39:47;;;;;;;15.05;6.45;;;;;;;7.14;85.47;99727.88;5094367;28;20062;-67
2024/03/10 03:42:15;;;;;;;15.20;6.38;;;;;;;7.10;85.65;99732.38;5105653;27;20056;-67
2024/03/10 03:44:41;;;;;;;12.68;5.60;;;;;;;7.10;85.80;99735.81;5092174;28;20036;-67
2024/03/10 03:47:08;;;;;;;19.75;6.60;;;;;;;7.05;85.26;99733.44;5094555;28;20024;-67
2024/03/10 03:49:34;;;;;;;19.00;6.80;;;;;;;7.11;85.49;99734.72;5093981;28;20039;-68
2024/03/10 03:52:00;;;;;;;18.48;5.97;;;;;;;6.99;85.79;99734.84;5090495;28;20408;-67
2024/03/10 03:54:25;;;;;;;14.15;5.97;;;;;;;7.02;85.74;99742.19;5091130;28;20522;-68
2024/03/10 03:56:51;;;;;;;12.82;6.13;;;;;;;7.07;85.38;99728.50;5060889;28;20034;-68
2024/03/10 03:59:17;;;;;;;15.05;6.22;;;;;;;7.03;85.41;99730.34;5090008;28;20028;-68
2024/03/10 04:01:43;;;;;;;19.85;6.38;;;;;;;6.99;85.43;99734.84;5061319;28;20528;-68
2024/03/10 04:04:10;;;;;;;16.55;5.80;;;;;;;7.00;85.70;99746.34;5089726;28;20061;-67
2024/03/10 04:06:36;;;;;;;12.48;6.10;;;;;;;6.89;86.25;99740.00;5091544;28;20080;-67
2024/03/10 04:09:02;;;;;;;15.55;6.13;;;;;;;6.94;85.96;99743.16;5075877;28;20032;-67
2024/03/10 04:11:28;;;;;;;17.23;6.47;;;;;;;7.01;85.95;99745.97;5093559;28;20119;-68
2024/03/10 04:13:54;;;;;;;13.57;6.10;;;;;;;6.96;86.30;99740.91;5087956;28;20203;-68
2024/03/10 04:16:20;;;;;;;11.50;5.05;;;;;;;6.86;86.54;99732.66;5094416;28;20115;-67
2024/03/10 04:18:45;;;;;;;16.25;6.47;;;;;;;6.84;86.72;99735.69;5082924;28;20536;-67
2024/03/10 04:21:12;;;;;;;17.65;5.38;;;;;;;6.84;86.16;99730.34;5089833;28;20768;-68
2024/03/10 04:23:37;;;;;;;21.75;6.40;;;;;;;6.84;86.45;99727.69;5093735;28;20442;-67
2024/03/10 04:26:03;;;;;;;18.33;6.47;;;;;;;6.87;86.19;99734.22;5095356;28;20024;-68
2024/03/10 04:28:29;;;;;;;17.13;6.40;;;;;;;6.75;87.04;99729.00;5095135;28;20082;-68
2024/03/10 04:30:55;;;;;;;18.33;6.32;;;;;;;6.84;86.30;99734.91;5088737;28;20055;-67
2024/03/10 04:33:21;;;;;;;18.00;6.32;;;;;;;6.79;86.50;99736.00;5087381;28;20064;-67
2024/03/10 04:35:47;;;;;;;18.23;6.40;;;;;;;6.86;86.92;99730.00;5084534;28;20047;-68
2024/03/10 04:38:12;;;;;;;17.23;6.30;;;;;;;6.83;86.60;99734.13;5090757;28;20434;-67
2024/03/10 04:40:38;;;;;;;14.50;6.07;;;;;;;6.84;87.11;99740.28;5087774;28;20039;-68
2024/03/10 04:43:04;;;;;;;28.63;7.53;;;;;;;6.79;86.66;99730.66;5086519;28;20059;-67
2024/03/10 04:45:29;;;;;;;13.52;5.85;;;;;;;6.84;86.75;99727.69;5090349;28;20112;-67
2024/03/10 04:47:56;;;;;;;12.93;5.25;;;;;;;6.81;86.31;99727.63;5087786;28;20674;-67
2024/03/10 04:50:22;;;;;;;26.85;7.28;;;;;;;6.74;87.49;99730.91;5089881;28;20059;-67
2024/03/10 04:52:47;;;;;;;20.13;7.45;;;;;;;6.79;87.23;99736.00;5093343;28;20024;-67
2024/03/10 04:55:13;;;;;;;23.25;6.22;;;;;;;6.77;86.60;99727.53;5087448;28;20180;-68
2024/03/10 04:57:39;;;;;;;18.17;6.50;;;;;;;6.69;86.72;99727.75;5106138;27;20028;-67
2024/03/10 05:00:09;;;;;;;17.50;6.78;;;;;;;6.77;87.14;99732.91;5074006;28;20044;-68
2024/03/10 05:02:34;;;;;;;20.20;6.28;;;;;;;6.58;88.03;99711.47;5089351;28;20396;-67
2024/03/10 05:05:04;;;;;;;18.77;6.43;;;;;;;6.61;88.18;99720.69;5089557;28;20089;-67
2024/03/10 05:07:30;;;;;;;17.40;7.03;;;;;;;6.60;88.24;99724.50;5091720;28;20039;-67
2024/03/10 05:09:56;;;;;;;16.13;6.50;;;;;;;6.76;87.26;99719.84;5100916;27;20095;-67
2024/03/10 05:12:22;;;;;;;13.65;6.10;;;;;;;6.64;87.48;99720.00;5087325;28;20078;-68
2024/03/10 05:14:48;;;;;;;16.23;6.22;;;;;;;6.72;87.06;99725.13;5120457;27;20574;-68
2024/03/10 05:17:14;;;;;;;16.38;6.07;;;;;;;6.82;86.63;99727.25;5089270;28;20071;-68
2024/03/10 05:19:41;;;;;;;12.77;6.07;;;;;;;6.64;86.59;99726.09;5090244;28;20088;-67
2024/03/10 05:22:09;;;;;;;13.05;5.88;;;;;;;6.69;87.54;99717.81;5089041;28;20046;-67
2024/03/10 05:24:41;;;;;;;12.43;5.63;;;;;;;6.65;88.04;99706.28;5109614;27;20561;-68
2024/03/10 05:27:07;;;;;;;16.33;6.50;;;;;;;6.68;87.23;99712.84;5098740;27;20031;-68
2024/03/10 05:29:33;;;;;;;17.30;6.20;;;;;;;6.83;86.69;99720.75;5085498;28;20680;-67
2024/03/10 05:31:59;;;;;;;13.98;6.10;;;;;;;6.71;87.27;99720.91;5087379;28;20178;-68
2024/03/10 05:34:24;;;;;;;15.73;6.38;;;;;;;6.69;87.37;99719.72;5090369;28;20032;-68
2024/03/10 05:36:50;;;;;;;16.98;6.45;;;;;;;6.72;88.00;99719.78;5089877;28;20122;-67
2024/03/10 05:39:16;;;;;;;19.05;6.53;;;;;;;6.75;87.45;99721.78;5082876;28;20024;-67
2024/03/10 05:41:42;;;;;;;18.10;7.50;;;;;;;6.69;87.90;99725.84;5087136;28;20031;-67
2024/03/10 05:44:09;;;;;;;21.38;7.78;;;;;;;6.73;87.41;99724.03;5072714;28;20054;-67
2024/03/10 05:46:34;;;;;;;19.80;6.35;;;;;;;6.65;88.69;99725.00;5104778;27;20035;-67
2024/03/10 05:49:01;;;;;;;17.15;7.15;;;;;;;6.76;87.81;99730.56;5091605;28;20035;-67
2024/03/10 05:51:27;;;;;;;19.08;7.13;;;;;;;6.74;87.44;99716.75;5118459;27;20480;-68
2024/03/10 05:53:53;;;;;;;16.90;5.95;;;;;;;6.68;88.77;99713.59;5089453;28;20028;-68
2024/03/10 05:56:18;;;;;;;18.33;7.32;;;;;;;6.60;88.34;99709.22;5089839;28;20024;-67
2024/03/10 05:58:45;;;;;;;17.45;6.43;;;;;;;6.54;89.88;99707.97;5087870;28;20595;-67
2024/03/10 06:01:15;;;;;;;15.85;5.70;;;;;;;6.74;89.21;99712.19;5094229;28;20042;-67
2024/03/10 06:03:41;;;;;;;15.88;4.80;;;;;;;6.78;88.52;99715.69;5092734;28;20032;-67
2024/03/10 06:06:09;;;;;;;20.33;7.20;;;;;;;6.83;88.60;99710.06;5094602;28;20451;-67
2024/03/10 06:08:35;;;;;;;19.80;6.93;;;;;;;6.84;88.48;99714.31;5106868;28;20122;-68
2024/03/10 06:11:01;;;;;;;18.42;6.15;;;;;;;6.79;88.59;99722.63;5094888;28;20042;-68
2024/03/10 06:13:26;;;;;;;19.10;6.00;;;;;;;6.75;88.79;99711.06;5074104;28;20031;-67
2024/03/10 06:15:52;;;;;;;21.15;7.57;;;;;;;6.74;88.98;99711.41;5093054;28;20528;-67
2024/03/10 06:18:21;;;;;;;17.83;5.93;;;;;;;6.64;89.85;99715.41;5090219;28;20027;-68
2024/03/10 06:26:23;;;;;;;16.17;6.47;;;;;;;6.77;89.77;99710.72;5091415;28;20042;-67
2024/03/10 06:28:50;;;;;;;14.27;5.22;;;;;;;6.92;89.80;99707.97;5095616;28;20059;-67
2024/03/10 06:31:20;;;;;;;20.25;6.25;;;;;;;6.71;90.61;99717.47;5090093;28;20028;-67
2024/03/10 06:33:48;;;;;;;16.95;6.72;;;;;;;6.56;92.25;99712.97;5094052;28;20035;-67
2024/03/10 06:36:14;;;;;;;17.20;6.68;;;;;;;6.77;90.95;99700.00;5095349;28;20038;-67
2024/03/10 06:38:41;;;;;;;12.40;6.35;;;;;;;6.90;90.49;99696.06;5092279;28;20421;-68
2024/03/10 06:41:08;;;;;;;15.50;6.07;;;;;;;6.87;90.26;99697.53;5092173;28;20059;-67
2024/03/10 06:43:34;;;;;;;20.80;6.72;;;;;;;6.90;90.78;99696.06;5084907;28;20506;-67
2024/03/10 06:46:00;;;;;;;16.67;6.30;;;;;;;6.82;91.09;99705.84;5103804;27;20465;-67
2024/03/10 06:48:26;;;;;;;20.55;6.40;;;;;;;6.82;91.56;99715.75;5085342;28;20028;-67
2024/03/10 06:50:52;;;;;;;29.20;7.68;;;;;;;7.14;90.04;99712.56;5083844;28;20036;-68
2024/03/10 06:53:18;;;;;;;19.92;6.50;;;;;;;7.23;89.46;99715.81;5067429;28;20327;-67
2024/03/10 06:55:44;;;;;;;21.25;7.00;;;;;;;7.20;89.49;99711.16;5084944;28;20039;-67
2024/03/10 06:58:11;;;;;;;19.90;6.80;;;;;;;7.32;89.25;99719.03;5084854;28;20557;-68
2024/03/10 07:00:39;;;;;;;22.42;6.03;;;;;;;7.40;88.98;99706.53;5052014;28;20051;-68
2024/03/10 07:03:05;;;;;;;21.02;7.15;;;;;;;7.37;89.01;99709.94;5081665;28;20032;-68
2024/03/10 07:05:33;;;;;;;18.63;7.20;;;;;;;7.40;89.43;99705.75;5084127;28;20063;-67
2024/03/10 07:08:00;;;;;;;20.63;6.78;;;;;;;7.59;88.41;99695.00;5085991;28;20473;-67
2024/03/10 07:10:29;;;;;;;23.83;7.22;;;;;;;7.60;88.31;99697.31;5084411;28;20504;-68
2024/03/10 07:12:55;;;;;;;20.05;7.50;;;;;;;7.57;88.49;99697.28;5118126;27;20135;-68
2024/03/10 07:15:22;;;;;;;14.82;5.43;;;;;;;7.73;88.62;99711.28;5084687;28;20110;-68
2024/03/10 07:17:47;;;;;;;18.55;8.07;;;;;;;7.88;87.10;99700.44;5083407;28;20035;-67
2024/03/10 07:20:13;;;;;;;16.35;6.93;;;;;;;7.83;87.58;99700.75;5083047;28;20036;-67
2024/03/10 07:22:41;;;;;;;19.85;7.40;;;;;;;7.82;87.85;99699.19;5084806;28;20119;-67
2024/03/10 07:25:10;;;;;;;16.27;6.70;;;;;;;7.97;87.56;99694.84;5117290;27;20031;-67
2024/03/10 07:27:36;;;;;;;19.00;7.43;;;;;;;8.17;86.32;99690.91;5086440;28;20158;-67
2024/03/10 07:30:04;;;;;;;18.83;7.53;;;;;;;8.17;86.28;99696.25;5083389;28;20163;-67
2024/03/10 07:32:32;;;;;;;21.52;7.55;;;;;;;8.27;86.03;99703.72;5084284;28;20028;-68
2024/03/10 07:35:00;;;;;;;22.63;8.23;;;;;;;8.36;85.77;99700.78;5082955;28;20031;-67
2024/03/10 07:37:26;;;;;;;17.02;8.27;;;;;;;8.36;85.24;99693.50;5082624;28;20039;-68
2024/03/10 07:39:53;;;;;;;23.80;6.75;;;;;;;8.47;85.20;99685.59;5081724;28;20101;-67
2024/03/10 07:42:19;;;;;;;19.08;6.93;;;;;;;8.72;84.55;99695.50;5064396;28;20034;-68
2024/03/10 07:44:45;;;;;;;27.17;7.13;;;;;;;9.04;82.80;99701.97;5081552;28;20040;-68
2024/03/10 07:47:11;;;;;;;24.10;8.45;;;;;;;9.09;82.94;99700.91;5082448;28;20130;-67
2024/03/10 07:49:37;;;;;;;21.55;7.55;;;;;;;9.34;81.91;99699.22;5082360;28;20512;-67
2024/03/10 07:52:04;;;;;;;24.80;7.88;;;;;;;9.46;81.43;99684.75;5084133;28;20032;-68
2024/03/10 07:54:31;;;;;;;22.33;8.25;;;;;;;9.76;80.49;99690.75;5085541;28;20073;-68
2024/03/10 07:56:56;;;;;;;16.95;6.63;;;;;;;9.70;79.17;99684.94;5082500;28;20043;-68
2024/03/10 07:59:22;;;;;;;24.70;8.43;;;;;;;10.02;79.02;99694.03;5083668;28;20051;-68
2024/03/10 08:01:51;;;;;;;22.02;8.10;;;;;;;10.21;78.17;99684.16;5079194;28;20032;-67
2024/03/10 08:04:18;;;;;;;24.00;7.10;;;;;;;10.56;76.77;99692.44;5083531;28;20028;-68
2024/03/10 08:06:43;;;;;;;25.38;8.07;;;;;;;10.65;76.70;99688.22;5089353;28;20040;-67
2024/03/10 08:09:09;;;;;;;20.52;7.70;;;;;;;10.89;74.47;99684.88;5070487;28;20390;-68
2024/03/10 08:11:35;;;;;;;22.15;7.43;;;;;;;11.15;74.55;99694.53;5064023;28;20036;-67
2024/03/10 08:14:01;;;;;;;25.88;8.93;;;;;;;11.26;73.00;99692.66;5084766;28;20039;-67
2024/03/10 08:16:27;;;;;;;19.92;7.10;;;;;;;11.34;72.94;99704.97;5090655;28;20059;-67
2024/03/10 08:18:53;;;;;;;29.38;8.73;;;;;;;11.46;72.25;99698.44;5082006;28;20493;-68
2024/03/10 08:21:19;;;;;;;21.35;7.85;;;;;;;11.73;71.37;99705.03;5080448;28;20043;-68
2024/03/10 08:23:45;;;;;;;23.00;7.93;;;;;;;11.84;70.50;99715.84;5084282;28;21299;-68
2024/03/10 08:26:10;;;;;;;20.23;8.68;;;;;;;12.15;68.01;99717.75;5080770;28;20123;-68
2024/03/10 08:28:36;;;;;;;19.90;7.25;;;;;;;12.32;67.75;99712.31;5085091;28;20039;-68
2024/03/10 08:31:04;;;;;;;24.75;8.32;;;;;;;12.44;67.21;99719.22;5086755;28;20039;-68
2024/03/10 08:33:29;;;;;;;29.77;9.38;;;;;;;12.32;67.72;99723.09;5085991;28;20036;-68
2024/03/10 08:35:55;;;;;;;22.15;8.05;;;;;;;12.58;67.22;99722.63;5083559;28;20432;-67
2024/03/10 08:38:21;;;;;;;19.55;7.95;;;;;;;12.81;66.89;99729.53;5085684;28;20397;-68
2024/03/10 08:40:47;;;;;;;18.33;8.65;;;;;;;13.02;65.80;99734.84;5104617;27;20509;-68
2024/03/10 08:43:13;;;;;;;16.90;7.38;;;;;;;13.16;63.96;99726.69;5070930;28;20020;-68
2024/03/10 08:45:39;;;;;;;20.83;7.25;;;;;;;13.06;63.92;99731.00;5098017;27;20039;-68
2024/03/10 08:48:09;;;;;;;22.55;6.78;;;;;;;13.10;63.93;99731.75;5085480;28;20143;-68
2024/03/10 08:50:36;;;;;;;19.40;7.97;;;;;;;13.27;62.29;99740.91;5074126;28;20442;-68
2024/03/10 08:53:05;;;;;;;17.33;7.53;;;;;;;13.21;63.24;99740.56;5080236;28;20072;-68
2024/03/10 08:55:32;;;;;;;17.50;7.30;;;;;;;13.38;62.87;99739.69;5071636;28;20477;-68
2024/03/10 08:57:59;;;;;;;21.67;7.90;;;;;;;13.32;62.45;99737.78;5079088;28;20167;-67
2024/03/10 09:00:25;;;;;;;23.77;8.30;;;;;;;13.48;61.74;99744.28;5080983;28;20050;-67
2024/03/10 09:02:51;;;;;;;22.75;8.27;;;;;;;13.81;61.39;99747.50;5082454;28;20032;-68
2024/03/10 09:05:18;;;;;;;18.60;6.93;;;;;;;13.91;61.31;99738.53;5063012;28;20036;-68
2024/03/10 09:07:44;;;;;;;17.95;7.05;;;;;;;14.14;60.36;99734.09;5114388;27;20100;-68
2024/03/10 09:10:10;;;;;;;21.98;7.38;;;;;;;14.08;60.24;99737.63;5061057;28;20035;-68
2024/03/10 09:12:36;;;;;;;18.33;7.13;;;;;;;14.20;59.59;99720.88;5077396;28;20039;-68
2024/03/10 09:15:02;;;;;;;21.40;7.15;;;;;;;14.41;59.15;99728.81;5079827;28;20809;-68
2024/03/10 09:17:29;;;;;;;19.60;7.47;;;;;;;14.63;58.17;99729.38;5080818;28;20495;-68
2024/03/10 09:19:55;;;;;;;18.38;7.25;;;;;;;14.58;58.14;99733.28;5081497;28;20044;-68
2024/03/10 09:22:20;;;;;;;16.42;6.63;;;;;;;14.67;58.45;99714.59;5083201;28;20031;-68
2024/03/10 09:24:49;;;;;;;14.45;6.50;;;;;;;14.83;57.59;99711.28;5087993;28;20409;-67
2024/03/10 09:27:15;;;;;;;20.98;7.35;;;;;;;14.98;56.78;99718.09;5073192;28;20171;-67
2024/03/10 09:29:40;;;;;;;13.23;6.15;;;;;;;15.10;56.27;99717.53;5085630;28;20115;-68
2024/03/10 09:32:06;;;;;;;13.60;5.57;;;;;;;15.02;55.93;99722.28;5069690;28;20047;-68
2024/03/10 09:34:32;;;;;;;19.30;6.82;;;;;;;14.91;56.75;99726.31;5087387;28;20085;-68
2024/03/10 09:36:58;;;;;;;21.45;7.43;;;;;;;15.19;55.97;99715.84;5089977;28;20032;-68
2024/03/10 09:39:23;;;;;;;15.77;6.28;;;;;;;15.27;55.06;99706.44;5090684;28;20178;-67
2024/03/10 09:41:51;;;;;;;14.13;5.82;;;;;;;15.17;55.33;99710.09;5086773;28;20028;-68
2024/03/10 09:44:18;;;;;;;22.00;6.65;;;;;;;15.36;54.51;99714.84;5083549;28;20040;-68
2024/03/10 09:46:49;;;;;;;15.88;6.35;;;;;;;15.26;55.52;99713.06;5089519;28;20028;-68
2024/03/10 09:49:16;;;;;;;12.70;6.10;;;;;;;15.08;55.14;99706.31;5084723;28;20465;-68
2024/03/10 09:51:49;;;;;;;14.02;6.75;;;;;;;15.04;55.53;99700.19;5084111;28;20031;-67
2024/03/10 09:54:15;;;;;;;17.63;6.85;;;;;;;14.95;55.30;99705.34;5083784;28;20029;-67
2024/03/10 09:56:41;;;;;;;16.48;6.50;;;;;;;14.35;56.51;99701.41;5084542;28;20469;-68
2024/03/10 09:59:14;;;;;;;20.10;7.53;;;;;;;14.42;57.14;99697.84;5083049;28;20042;-68
2024/03/10 10:01:43;;;;;;;15.52;6.65;;;;;;;14.23;57.45;99693.75;5086890;28;20131;-67
2024/03/10 10:04:11;;;;;;;22.05;7.35;;;;;;;14.09;57.95;99683.06;5079862;28;20050;-68
2024/03/10 10:06:41;;;;;;;13.45;6.13;;;;;;;13.97;58.19;99682.81;5065504;28;20045;-67
2024/03/10 10:09:09;;;;;;;19.73;7.03;;;;;;;14.19;58.56;99684.91;5112492;27;20059;-67
2024/03/10 10:11:36;;;;;;;16.98;7.15;;;;;;;14.41;58.25;99691.66;5079798;28;20123;-67
2024/03/10 10:14:23;;;;;;;17.85;7.22;;;;;;;14.59;57.90;99693.41;5082705;28;20177;-68
2024/03/10 10:16:56;;;;;;;18.35;7.22;;;;;;;14.50;57.17;99687.72;5082300;28;20032;-67
2024/03/10 10:19:25;;;;;;;18.58;6.72;;;;;;;14.35;57.30;99677.03;5083853;28;20559;-67
2024/03/10 10:21:52;;;;;;;16.40;7.05;;;;;;;14.38;57.28;99686.28;5089851;28;20028;-68
2024/03/10 10:24:19;;;;;;;17.17;7.18;;;;;;;14.21;57.79;99693.38;5090614;28;20032;-67
2024/03/10 10:26:58;;;;;;;21.08;7.68;;;;;;;14.30;58.45;99688.28;5093081;28;20569;-68
2024/03/10 10:29:25;;;;;;;20.10;7.50;;;;;;;14.34;58.14;99691.72;5107940;28;20027;-67
2024/03/10 10:31:57;;;;;;;18.88;6.18;;;;;;;14.54;57.29;99685.72;5086380;28;20019;-68
2024/03/10 10:34:23;;;;;;;19.45;7.15;;;;;;;14.46;57.62;99690.44;5125187;27;20044;-67
2024/03/10 10:36:49;;;;;;;21.50;7.85;;;;;;;14.26;57.71;99684.06;5073481;28;20028;-68
2024/03/10 10:39:24;;;;;;;18.30;6.18;;;;;;;14.20;58.36;99686.44;5089483;28;20119;-68
2024/03/10 10:41:51;;;;;;;18.10;7.05;;;;;;;13.98;58.72;99690.53;5070883;28;20072;-67
2024/03/10 10:44:19;;;;;;;16.42;6.57;;;;;;;14.18;57.96;99682.59;5092778;28;20066;-68
2024/03/10 10:46:46;;;;;;;17.77;7.05;;;;;;;13.91;59.56;99677.06;5091177;28;20046;-67
2024/03/10 10:49:13;;;;;;;16.58;7.00;;;;;;;14.07;59.71;99671.13;5087465;28;20032;-68
2024/03/10 10:51:39;;;;;;;17.60;6.75;;;;;;;13.96;59.75;99665.78;5086503;28;20027;-67
2024/03/10 10:54:11;;;;;;;22.75;8.15;;;;;;;14.02;60.04;99660.69;5079556;28;20043;-68
2024/03/10 10:56:38;;;;;;;17.88;6.95;;;;;;;13.99;59.69;99643.34;5083929;28;20031;-67
2024/03/10 10:59:05;;;;;;;13.98;6.40;;;;;;;14.09;58.72;99652.53;5064607;28;20032;-67
2024/03/10 11:01:35;;;;;;;23.40;6.82;;;;;;;13.85;60.19;99648.88;5061349;28;20031;-67
2024/03/10 11:04:04;;;;;;;20.02;7.30;;;;;;;13.82;60.12;99644.25;5082012;28;20044;-67
2024/03/10 11:06:31;;;;;;;17.40;6.35;;;;;;;13.95;59.51;99641.84;5084580;28;20063;-67
2024/03/10 11:08:57;;;;;;;16.00;7.00;;;;;;;13.87;59.61;99635.72;5073187;28;20105;-67
2024/03/10 11:11:47;;;;;;;20.10;7.38;;;;;;;13.93;60.13;99636.81;5086166;28;20027;-67
2024/03/10 11:14:17;;;;;;;17.92;6.80;;;;;;;14.24;58.76;99634.94;5082824;28;20075;-67
2024/03/10 11:16:43;;;;;;;16.17;6.80;;;;;;;13.84;59.41;99641.94;5080432;28;20040;-67
2024/03/10 11:19:13;;;;;;;19.65;7.70;;;;;;;13.86;59.85;99630.72;5077794;28;20031;-67
2024/03/10 11:21:41;;;;;;;18.90;7.07;;;;;;;14.01;59.38;99638.31;5081876;28;20061;-68
2024/03/10 11:24:15;;;;;;;16.58;6.65;;;;;;;14.20;59.39;99629.56;5080576;28;20385;-67
2024/03/10 11:26:44;;;;;;;22.63;6.95;;;;;;;14.23;58.93;99634.19;5082135;28;20515;-67
2024/03/10 11:29:27;;;;;;;19.77;7.15;;;;;;;14.12;59.54;99619.22;5082496;28;20036;-67
2024/03/10 11:31:57;;;;;;;19.98;6.65;;;;;;;14.11;59.40;99613.03;5080438;28;20525;-68
2024/03/10 11:34:28;;;;;;;20.73;7.10;;;;;;;14.13;59.91;99609.94;5083589;28;20031;-68
2024/03/10 11:36:58;;;;;;;17.70;8.18;;;;;;;14.09;59.32;99609.94;5079707;28;20036;-68
2024/03/10 11:39:28;;;;;;;17.95;6.55;;;;;;;14.26;59.10;99597.41;5071172;28;20122;-68
2024/03/10 11:41:59;;;;;;;19.20;6.70;;;;;;;14.74;58.69;99594.47;5101079;27;20028;-67
2024/03/10 11:44:31;;;;;;;14.43;6.82;;;;;;;14.48;58.88;99590.56;5089137;28;20502;-68
2024/03/10 11:47:02;;;;;;;20.17;7.82;;;;;;;14.52;58.76;99595.97;5112735;27;20059;-68
2024/03/10 11:49:32;;;;;;;14.25;6.65;;;;;;;14.71;57.74;99587.94;5084832;28;20122;-68
2024/03/10 11:52:05;;;;;;;;;;;;;;;14.90;57.41;99583.81;5084643;28;20035;-68
2024/03/10 11:54:36;;;;;;;21.20;7.00;;;;;;;15.12;57.19;99582.28;5091163;28;19920;-68